Time;durP1;ratioP1;P1;durP2;ratioP2;P2;SDS_P1;SDS_P2;PMS_P1;PMS_P2;Temp;Humidity;BMP_temperature;BMP_pressure;BME280_temperature;BME280_humidity;BME280_pressure;Samples;Min_cycle;Max_cycle;Signal;HPM_P1;HPM_P2
2022/01/28 00:01:35;;;;;;;1.60;1.50;;;4.50;78.20;;;3.48;65.51;95057.31;4670391;30;20213;-91
2022/01/28 00:04:12;;;;;;;1.40;1.30;;;4.50;78.20;;;3.50;65.77;95057.97;4683910;30;20704;-91
2022/01/28 00:06:42;;;;;;;1.90;1.70;;;4.50;78.20;;;3.61;65.43;95081.13;4671132;30;20572;-90
2022/01/28 00:09:10;;;;;;;1.83;1.70;;;4.60;78.20;;;3.54;65.42;95059.34;4698520;30;20240;-90
2022/01/28 00:11:38;;;;;;;1.60;1.50;;;4.60;78.20;;;3.59;65.27;95064.06;4655619;30;20254;-91
2022/01/28 00:36:48;;;;;;;2.22;1.70;;;4.60;78.20;;;3.48;65.69;95078.88;4692105;30;20216;-89
2022/01/28 00:39:16;;;;;;;1.70;1.60;;;4.50;78.40;;;3.42;66.15;95076.84;4694132;30;20251;-89
2022/01/28 00:41:44;;;;;;;1.80;1.70;;;4.60;78.50;;;3.38;66.05;95074.69;4675705;30;20216;-90
2022/01/28 00:44:16;;;;;;;1.80;1.70;;;4.60;78.60;;;3.42;66.58;95076.84;4689851;30;20728;-90
2022/01/28 00:46:44;;;;;;;2.00;1.80;;;4.50;78.70;;;3.38;66.78;95082.47;4675190;30;20220;-89
2022/01/28 00:49:12;;;;;;;1.80;1.70;;;4.50;78.80;;;3.38;66.60;95085.88;4689943;30;20248;-89
2022/01/28 00:51:40;;;;;;;2.15;1.90;;;4.40;78.80;;;3.38;66.04;95085.88;4675446;30;20681;-89
2022/01/28 00:54:08;;;;;;;2.15;1.95;;;4.40;78.70;;;3.34;66.11;95089.72;4676060;30;20239;-89
2022/01/28 00:56:36;;;;;;;2.17;1.98;;;4.40;78.70;;;3.30;66.69;95084.00;4703926;30;20240;-89
2022/01/28 00:59:04;;;;;;;1.83;1.73;;;4.50;79.00;;;3.36;66.35;95093.00;4675546;30;20240;-89
2022/01/28 01:01:32;;;;;;;1.90;1.80;;;4.40;78.80;;;3.32;66.29;95091.63;4689218;30;20221;-89
2022/01/28 01:04:01;;;;;;;1.90;1.80;;;4.40;78.90;;;3.29;66.92;95082.34;4703392;30;20243;-89
2022/01/28 01:06:29;;;;;;;2.00;1.73;;;4.40;79.10;;;3.34;67.10;95100.09;4689402;30;20665;-90
2022/01/28 01:08:57;;;;;;;2.22;1.85;;;4.40;79.20;;;3.32;66.89;95102.81;4689367;30;20247;-89
2022/01/28 01:11:26;;;;;;;1.88;1.77;;;4.40;79.20;;;3.31;67.31;95106.38;4689228;30;20244;-90
2022/01/28 01:13:56;;;;;;;1.70;1.60;;;4.40;79.20;;;3.37;67.58;95123.16;4689671;30;20236;-90
2022/01/28 01:16:36;;;;;;;1.98;1.80;;;4.40;79.30;;;3.30;67.18;95101.34;4700972;30;20264;-88
2022/01/28 01:21:40;;;;;;;1.98;1.75;;;4.40;79.60;;;3.37;67.03;95105.00;4690056;30;20354;-89
2022/01/28 01:24:11;;;;;;;2.40;1.90;;;4.40;79.50;;;3.31;67.93;95097.78;4687587;30;20248;-90
2022/01/28 01:26:41;;;;;;;2.50;2.05;;;4.40;80.00;;;3.26;67.97;95092.19;4686921;30;20213;-89
2022/01/28 01:29:12;;;;;;;2.55;2.22;;;4.30;79.70;;;3.31;67.74;95093.41;4686547;30;20291;-89
2022/01/28 01:31:42;;;;;;;1.90;1.80;;;4.40;79.80;;;3.40;67.34;95098.72;4686759;30;20217;-91
2022/01/28 01:36:39;;;;;;;2.20;2.00;;;4.40;79.80;;;3.28;67.81;95088.50;4699693;30;20209;-90
2022/01/28 01:39:09;;;;;;;2.67;2.28;;;4.50;79.90;;;3.45;67.46;95112.84;4671621;30;20240;-91
2022/01/28 01:41:43;;;;;;;2.30;2.10;;;4.40;79.80;;;3.32;67.63;95089.88;4686452;30;20217;-90
2022/01/28 01:44:27;;;;;;;2.30;2.10;;;4.40;80.00;;;3.34;67.47;95100.91;4686293;30;20240;-89
2022/01/28 01:52:01;;;;;;;2.40;2.20;;;4.40;80.70;;;3.43;67.90;95119.16;4673842;30;20216;-91
2022/01/28 01:52:56;;;;;;;2.88;2.25;;;4.40;80.00;;;3.47;67.52;95117.94;4686649;30;20385;-90
2022/01/28 01:55:24;;;;;;;2.55;2.22;;;4.40;79.70;;;3.34;67.81;95102.69;4686183;30;20244;-91
2022/01/28 01:57:53;;;;;;;2.50;2.28;;;4.50;79.90;;;3.32;67.79;95095.03;4686209;30;20231;-89
2022/01/28 02:00:21;;;;;;;2.30;2.10;;;4.50;80.00;;;3.40;67.63;95109.06;4658025;30;20272;-90
2022/01/28 02:02:49;;;;;;;2.97;2.17;;;4.50;79.90;;;3.36;67.72;95098.19;4685778;30;20221;-91
2022/01/28 02:05:20;;;;;;;2.38;2.17;;;4.50;80.00;;;3.38;67.79;95101.41;4672321;30;20335;-91
2022/01/28 02:07:48;;;;;;;3.67;2.30;;;4.40;79.90;;;3.42;67.60;95107.13;4684860;30;20223;-90
2022/01/28 02:10:16;;;;;;;2.50;2.20;;;4.40;79.90;;;3.47;67.27;95113.53;4685864;30;20717;-89
2022/01/28 02:12:45;;;;;;;2.55;2.25;;;4.50;80.00;;;3.46;67.41;95106.72;4686015;30;20225;-90
2022/01/28 02:15:13;;;;;;;2.55;2.08;;;4.50;79.90;;;3.51;67.08;95112.28;4685870;30;20233;-90
2022/01/28 02:17:41;;;;;;;3.35;2.33;;;4.50;79.80;;;3.57;67.28;95125.66;4700460;30;20256;-90
2022/01/28 02:20:25;;;;;;;3.47;2.30;;;4.50;79.90;;;3.47;67.33;95113.53;4686532;30;20296;-90
2022/01/28 02:22:54;;;;;;;2.30;2.10;;;4.50;80.00;;;3.52;67.71;95119.09;4685875;30;20220;-89
2022/01/28 02:25:32;;;;;;;3.65;2.42;;;4.60;80.00;;;3.51;67.55;95111.47;4671162;30;20244;-90
2022/01/28 02:28:04;;;;;;;2.10;1.90;;;4.60;80.00;;;3.50;67.31;95105.50;4672316;30;20300;-90
2022/01/28 02:30:32;;;;;;;2.28;1.95;;;4.60;80.00;;;3.48;67.43;95107.41;4685287;30;20236;-90
2022/01/28 02:33:11;;;;;;;3.63;2.25;;;4.60;80.00;;;3.54;67.44;95111.22;4699561;30;20229;-89
2022/01/28 02:35:42;;;;;;;2.72;2.10;;;4.60;80.10;;;3.52;67.33;95110.53;4685419;30;20697;-91
2022/01/28 02:38:11;;;;;;;2.30;2.10;;;4.60;80.10;;;3.57;67.28;95115.28;4685673;30;20220;-91
2022/01/28 02:40:45;;;;;;;2.30;2.10;;;4.60;80.10;;;3.59;67.59;95129.75;4685676;30;20240;-89
2022/01/28 02:45:47;;;;;;;2.10;1.90;;;4.60;80.10;;;3.60;67.53;95120.16;4684497;30;20244;-91
2022/01/28 02:48:21;;;;;;;1.98;1.88;;;4.70;80.20;;;3.63;68.09;95125.88;4699403;30;20259;-90
2022/01/28 02:53:24;;;;;;;1.70;1.60;;;4.70;80.30;;;3.72;67.79;95126.00;4685479;30;20217;-89
2022/01/28 02:56:02;;;;;;;1.70;1.60;;;4.70;80.30;;;3.76;67.60;95127.34;4684927;30;20232;-90
2022/01/28 02:58:31;;;;;;;2.28;2.08;;;4.70;80.10;;;3.66;67.93;95117.84;4685474;30;20213;-89
2022/01/28 03:00:58;;;;;;;1.90;1.67;;;4.70;80.10;;;3.72;67.39;95132.00;4684846;30;20291;-90
2022/01/28 03:03:25;;;;;;;2.10;1.88;;;4.70;80.00;;;3.64;67.36;95106.78;4656522;30;20686;-89
2022/01/28 03:05:54;;;;;;;2.47;1.95;;;4.70;80.00;;;3.68;67.77;95115.09;4684680;30;20264;-90
2022/01/28 03:08:26;;;;;;;2.45;1.90;;;4.70;80.00;;;3.75;67.23;95131.72;4699052;30;20221;-90
2022/01/28 03:16:32;;;;;;;2.10;1.90;;;4.80;80.10;;;3.69;67.46;95127.91;4698645;30;20213;-89
2022/01/28 03:19:14;;;;;;;1.98;1.75;;;4.70;80.00;;;3.69;67.36;95119.31;4685277;30;20241;-89
2022/01/28 03:21:53;;;;;;;2.17;1.70;;;4.70;80.00;;;3.67;67.56;95122.06;4673280;30;20217;-89
2022/01/28 03:24:24;;;;;;;1.83;1.63;;;4.70;80.00;;;3.81;67.08;95138.13;4671708;30;20236;-89
2022/01/28 03:26:59;;;;;;;1.95;1.73;;;4.80;79.90;;;3.74;67.00;95140.44;4684768;30;20303;-89
2022/01/28 03:29:27;;;;;;;3.10;2.00;;;4.80;79.80;;;3.63;66.83;95131.06;4685118;30;20232;-89
2022/01/28 03:31:54;;;;;;;2.72;2.00;;;4.70;79.60;;;3.63;66.99;95140.66;4684679;30;20651;-89
2022/01/28 03:34:23;;;;;;;4.15;2.00;;;4.70;79.70;;;3.70;67.05;95146.91;4683236;30;20244;-88
2022/01/28 03:36:52;;;;;;;2.03;1.83;;;4.70;79.60;;;3.64;67.30;95142.28;4670497;30;20217;-88
2022/01/28 03:39:19;;;;;;;2.03;1.80;;;4.70;79.90;;;3.61;67.48;95137.38;4698628;30;20240;-89
2022/01/28 03:41:48;;;;;;;1.95;1.80;;;4.70;79.90;;;3.75;67.26;95155.06;4684523;30;20222;-89
2022/01/28 03:44:20;;;;;;;1.80;1.70;;;4.70;79.80;;;3.66;67.14;95133.41;4684387;30;20245;-89
2022/01/28 03:46:49;;;;;;;2.45;2.00;;;4.70;80.00;;;3.71;67.23;95143.34;4683839;30;20776;-89
2022/01/28 03:49:17;;;;;;;1.92;1.80;;;4.70;80.00;;;3.82;67.34;95153.53;4670834;30;20281;-89
2022/01/28 03:51:44;;;;;;;2.08;1.67;;;4.70;80.00;;;3.76;67.25;95141.13;4698353;30;20209;-88
2022/01/28 03:54:12;;;;;;;3.20;1.90;;;4.80;80.00;;;3.85;66.91;95162.81;4670706;30;20240;-88
2022/01/28 03:56:40;;;;;;;3.40;1.90;;;4.80;79.90;;;3.85;66.65;95157.63;4684537;30;20317;-89
2022/01/28 03:59:08;;;;;;;1.92;1.80;;;4.80;79.70;;;3.81;66.22;95154.50;4670305;30;20240;-89
2022/01/28 04:01:38;;;;;;;1.70;1.60;;;4.80;79.60;;;3.80;66.29;95152.84;4670543;30;20223;-88
2022/01/28 04:12:23;;;;;;;2.15;1.90;;;4.80;79.50;;;3.83;66.60;95177.69;4685835;30;20703;-88
2022/01/28 04:17:47;;;;;;;5.80;2.20;;;4.70;80.40;;;3.74;66.65;95158.63;4665387;30;20216;-90
2022/01/28 04:20:15;;;;;;;3.35;2.40;;;4.80;79.40;;;3.75;66.58;95147.28;4684172;30;20236;-89
2022/01/28 04:22:43;;;;;;;4.18;2.08;;;4.80;79.50;;;3.71;66.19;95163.28;4683949;30;20574;-88
2022/01/28 04:25:14;;;;;;;3.58;2.13;;;4.80;79.50;;;3.67;66.12;95148.00;4684152;30;20236;-90
2022/01/28 04:27:42;;;;;;;2.17;1.98;;;4.70;79.50;;;3.73;66.74;95164.75;4684296;30;20248;-89
2022/01/28 04:30:11;;;;;;;2.95;2.55;;;4.80;79.50;;;3.75;66.68;95175.81;4683660;30;20239;-89
2022/01/28 04:32:39;;;;;;;2.25;2.05;;;4.70;79.40;;;3.85;66.44;95189.56;4698512;30;20216;-88
2022/01/28 04:35:08;;;;;;;2.90;2.28;;;4.70;79.50;;;3.84;66.64;95198.31;4697916;30;20245;-90
2022/01/28 04:38:12;;;;;;;3.47;2.25;;;4.70;79.60;;;3.80;66.73;95189.16;4669553;30;20217;-89
2022/01/28 04:40:29;;;;;;;2.17;1.90;;;4.70;79.70;;;3.85;66.59;95201.72;4683676;30;20332;-89
2022/01/28 05:03:50;;;;;;;2.70;2.50;;;4.70;79.20;;;3.60;65.69;95216.97;4702392;30;20220;-88
2022/01/28 05:14:45;;;;;;;2.83;2.25;;;4.60;79.20;;;3.62;66.07;95217.63;4687075;30;20247;-92
2022/01/28 05:28:25;;;;;;;2.90;2.47;;;4.70;79.30;;;3.68;66.27;95230.03;4675570;30;20308;-91
2022/01/28 05:30:54;;;;;;;2.60;2.10;;;4.70;79.30;;;3.67;66.27;95222.41;4690050;30;20770;-90
2022/01/28 05:33:22;;;;;;;2.38;2.17;;;4.70;79.20;;;3.73;66.34;95231.41;4694061;30;20228;-91
2022/01/28 05:35:50;;;;;;;2.80;2.10;;;4.70;79.30;;;3.78;66.09;95237.78;4672929;30;20236;-91
2022/01/28 05:38:18;;;;;;;3.53;2.20;;;4.70;79.30;;;3.74;66.22;95220.88;4672622;30;20220;-91
2022/01/28 05:40:48;;;;;;;2.60;2.10;;;4.70;79.30;;;3.78;65.50;95268.91;4687457;30;20255;-90
2022/01/28 05:43:22;;;;;;;3.95;2.22;;;4.70;79.10;;;3.65;65.59;95227.72;4674525;30;20268;-92
2022/01/28 05:46:08;;;;;;;2.83;2.10;;;4.70;79.20;;;3.71;65.73;95247.13;4672560;30;20252;-92
2022/01/28 05:49:30;;;;;;;;;;;;;;;;;;;;;
2022/01/28 05:54:17;;;;;;;;;;;;;;;;;;;;;
2022/01/28 06:01:25;;;;;;;2.40;2.20;;;4.60;79.10;;;3.61;66.07;95267.06;4644797;30;20726;-92
2022/01/28 06:03:57;;;;;;;2.83;1.90;;;4.60;79.10;;;3.59;66.66;95261.19;4672982;30;20252;-92
2022/01/28 06:06:25;;;;;;;2.33;2.10;;;4.60;79.40;;;3.58;66.28;95257.78;4687578;30;20267;-93
2022/01/28 06:08:57;;;;;;;2.80;2.35;;;4.50;79.50;;;3.63;66.37;95265.97;4686091;30;20571;-93
2022/01/28 06:11:25;;;;;;;2.17;1.90;;;4.60;79.50;;;3.80;66.23;95292.16;4685674;30;20209;-93
2022/01/28 06:13:54;;;;;;;2.20;1.98;;;4.60;79.50;;;3.73;66.29;95275.50;4685716;30;20260;-92
2022/01/28 06:16:24;;;;;;;1.90;1.80;;;4.60;79.50;;;3.75;66.21;95263.19;4685854;30;20677;-93
2022/01/28 06:18:51;;;;;;;2.95;2.13;;;4.70;79.50;;;3.84;66.51;95277.94;4713799;30;20240;-91
2022/01/28 06:21:19;;;;;;;2.83;1.90;;;4.80;80.40;;;3.82;66.24;95274.66;4685950;30;20709;-90
2022/01/28 06:23:48;;;;;;;2.40;1.95;;;4.70;79.50;;;3.91;66.10;95289.38;4700062;30;20220;-91
2022/01/28 06:26:16;;;;;;;2.67;2.03;;;4.90;79.50;;;3.88;66.09;95287.06;4700314;30;20240;-91
2022/01/28 06:28:44;;;;;;;2.55;1.80;;;4.80;79.40;;;3.88;65.64;95286.25;4699124;30;20220;-92
2022/01/28 06:31:11;;;;;;;3.45;2.17;;;4.90;79.40;;;3.92;65.76;95313.53;4699528;30;20227;-92
2022/01/28 06:33:40;;;;;;;2.45;1.90;;;4.90;79.40;;;3.88;65.76;95291.44;4700236;30;20673;-93
2022/01/28 06:36:08;;;;;;;3.58;2.30;;;4.90;79.20;;;3.90;65.35;95297.31;4699916;30;20743;-92
2022/01/28 06:38:36;;;;;;;3.50;2.10;;;4.90;79.10;;;3.99;64.35;95330.19;4685318;30;20312;-94
2022/01/28 06:41:05;;;;;;;2.00;1.80;;;4.90;78.80;;;3.98;64.78;95319.00;4683342;30;20244;-92
2022/01/28 06:43:40;;;;;;;2.83;2.03;;;4.90;78.70;;;3.97;64.61;95322.56;4697616;30;20216;-92
2022/01/28 06:46:09;;;;;;;3.00;2.10;;;5.00;78.50;;;3.98;64.06;95320.78;4684845;30;20236;-89
2022/01/28 06:48:37;;;;;;;2.95;1.80;;;5.00;78.50;;;4.01;64.07;95331.69;4702466;30;20692;-92
2022/01/28 06:51:07;;;;;;;2.15;1.85;;;5.00;78.40;;;4.03;63.44;95348.91;4699648;30;20274;-89
2022/01/28 06:53:35;;;;;;;2.38;1.80;;;5.00;78.10;;;3.99;63.33;95320.63;4684209;30;20220;-93
2022/01/28 06:56:03;;;;;;;4.60;1.98;;;4.90;77.90;;;3.98;62.40;95324.19;4667123;30;20743;-91
2022/01/28 06:58:32;;;;;;;2.17;1.90;;;5.00;77.50;;;4.01;62.09;95338.66;4683495;30;20221;-94
2022/01/28 07:01:03;;;;;;;2.60;1.80;;;5.00;77.30;;;3.97;61.94;95340.72;4680664;30;20217;-93
2022/01/28 07:03:32;;;;;;;3.65;1.92;;;4.90;76.90;;;4.06;61.28;95333.06;4695584;30;20220;-92
2022/01/28 07:06:01;;;;;;;2.10;1.50;;;5.00;76.80;;;4.07;61.09;95340.69;4696645;30;20267;-90
2022/01/28 07:09:00;;;;;;;3.42;1.98;;;5.00;76.80;;;4.09;61.11;95325.81;4694748;30;20220;-91
2022/01/28 07:11:33;;;;;;;3.78;1.80;;;5.00;76.50;;;4.00;59.74;95324.88;4681565;30;20299;-91
2022/01/28 07:14:12;;;;;;;3.45;1.75;;;5.00;76.00;;;4.06;58.38;95320.06;4668683;30;20279;-92
2022/01/28 07:17:24;;;;;;;2.17;1.55;;;5.00;75.30;;;4.09;59.76;95306.78;4686708;30;20224;-92
2022/01/28 07:20:23;;;;;;;;;;;;;;;;;;;;;
2022/01/28 07:23:04;;;;;;;2.08;1.85;;;5.00;75.40;;;4.06;59.52;95323.47;4679808;30;20244;-92
2022/01/28 07:25:34;;;;;;;2.53;1.40;;;5.00;76.30;;;4.06;58.12;95330.47;4668397;30;20376;-94
2022/01/28 07:28:13;;;;;;;1.83;1.27;;;5.00;74.90;;;4.17;58.58;95356.25;4683533;30;20212;-94
2022/01/28 07:31:14;;;;;;;;;;;;;;;;;;;;;
2022/01/28 07:34:00;;;;;;;1.88;1.48;;;5.00;74.80;;;4.18;57.80;95381.25;4693456;30;20245;-92
2022/01/28 07:36:37;;;;;;;3.40;1.77;;;5.00;74.60;;;4.13;56.84;95357.50;4668091;30;20209;-92
2022/01/28 07:39:09;;;;;;;3.15;1.77;;;5.00;74.10;;;4.12;57.71;95371.44;4679949;30;20269;-92
2022/01/28 07:41:47;;;;;;;4.30;1.75;;;5.00;74.30;;;4.08;58.49;95368.28;4693714;30;20300;-93
2022/01/28 07:44:16;;;;;;;4.22;1.80;;;5.00;74.60;;;4.09;57.85;95379.47;4680726;30;20335;-95
2022/01/28 07:46:44;;;;;;;1.90;1.52;;;5.00;74.50;;;4.12;57.68;95397.38;4693792;30;20245;-93
2022/01/28 07:49:18;;;;;;;2.08;1.40;;;5.00;74.50;;;4.08;57.63;95389.06;4689279;30;20242;-92
2022/01/28 07:51:58;;;;;;;3.10;1.40;;;4.90;74.30;;;4.15;56.79;95397.09;4669384;30;20282;-93
2022/01/28 07:54:31;;;;;;;2.35;1.75;;;5.00;73.80;;;4.14;57.25;95398.88;4693890;30;20244;-92
2022/01/28 07:57:01;;;;;;;2.35;1.60;;;5.00;74.20;;;4.22;57.77;95387.78;4665776;30;20228;-91
2022/01/28 07:59:34;;;;;;;1.95;1.50;;;5.00;74.40;;;4.23;57.18;95378.22;4694310;30;20306;-95
2022/01/28 08:02:07;;;;;;;2.13;1.67;;;5.10;74.00;;;4.31;57.14;95388.75;4680580;30;20221;-94
2022/01/28 08:04:38;;;;;;;1.95;1.40;;;5.10;74.00;;;4.32;57.09;95400.75;4681412;30;20236;-92
2022/01/28 08:07:09;;;;;;;5.13;1.80;;;5.10;73.90;;;4.30;58.04;95406.09;4695370;30;20245;-94
2022/01/28 08:09:57;;;;;;;3.70;1.85;;;5.10;74.10;;;4.28;58.95;95402.00;4679802;30;20295;-95
2022/01/28 08:12:51;;;;;;;3.10;1.77;;;5.10;74.60;;;4.28;60.54;95441.75;4680077;30;20287;-91
2022/01/28 08:15:22;;;;;;;3.70;1.80;;;5.20;75.20;;;4.32;60.71;95437.94;4665849;30;20225;-93
2022/01/28 08:17:52;;;;;;;3.38;1.70;;;5.20;75.50;;;4.30;60.13;95436.44;4681090;30;20340;-91
2022/01/28 08:20:20;;;;;;;4.75;1.70;;;5.20;75.40;;;4.32;60.42;95429.31;4665534;30;20243;-90
2022/01/28 08:22:54;;;;;;;3.20;1.65;;;5.20;75.50;;;4.33;60.62;95426.59;4683266;30;20306;-90
2022/01/28 08:25:31;;;;;;;2.88;1.65;;;5.20;75.70;;;4.38;60.16;95430.53;4693921;30;20303;-92
2022/01/28 08:28:00;;;;;;;3.17;1.60;;;5.30;75.50;;;4.38;60.49;95443.53;4679265;30;20333;-91
2022/01/28 08:30:29;;;;;;;3.08;1.70;;;5.20;75.70;;;4.31;60.54;95485.63;4682415;30;20301;-89
2022/01/28 08:32:57;;;;;;;4.97;1.75;;;5.20;75.60;;;4.36;60.35;95437.63;4682431;30;20220;-88
2022/01/28 08:35:31;;;;;;;2.95;1.77;;;5.20;75.40;;;4.32;60.42;95445.72;4683283;30;20701;-89
2022/01/28 08:38:18;;;;;;;3.72;2.25;;;5.30;75.30;;;4.35;61.11;95436.84;4683710;30;20217;-91
2022/01/28 08:40:45;;;;;;;3.92;2.00;;;5.30;75.90;;;4.41;60.18;95446.66;4682882;30;20256;-92
2022/01/28 08:43:13;;;;;;;4.93;1.80;;;5.30;75.60;;;4.54;58.53;95451.56;4669329;30;20275;-88
2022/01/28 08:45:41;;;;;;;2.97;1.60;;;5.40;75.00;;;4.66;57.59;95449.59;4683958;30;20244;-89
2022/01/28 08:48:09;;;;;;;4.95;2.22;;;5.40;74.60;;;4.70;57.23;95456.16;4667557;30;20240;-89
2022/01/28 08:50:37;;;;;;;3.95;1.75;;;5.40;74.40;;;4.65;58.68;95448.78;4667536;30;20237;-90
2022/01/28 08:53:05;;;;;;;3.03;1.80;;;5.40;74.80;;;4.58;59.45;95468.50;4682973;30;20205;-88
2022/01/28 08:55:38;;;;;;;2.67;1.52;;;5.50;75.10;;;4.57;60.17;95459.06;4669398;30;20236;-90
2022/01/28 08:58:10;;;;;;;4.55;1.80;;;5.60;75.30;;;4.54;60.18;95453.31;4686322;30;20213;-89
2022/01/28 09:00:39;;;;;;;3.63;1.50;;;5.50;75.40;;;4.51;60.54;95456.22;4697876;30;20244;-88
2022/01/28 09:03:08;;;;;;;3.13;1.60;;;5.50;75.50;;;4.66;60.71;95483.38;4682436;30;20671;-90
2022/01/28 09:05:39;;;;;;;4.13;1.80;;;5.50;75.70;;;4.62;60.31;95479.44;4685803;30;20232;-91
2022/01/28 09:08:09;;;;;;;2.90;1.88;;;5.50;75.60;;;4.70;61.03;95528.91;4695809;30;20240;-90
2022/01/28 09:10:43;;;;;;;1.88;1.50;;;5.50;75.80;;;4.70;60.46;95502.94;4668070;30;20236;-91
2022/01/28 09:13:37;;;;;;;4.80;2.10;;;5.60;76.50;;;4.73;59.16;95496.63;4668345;30;20291;-88
2022/01/28 09:16:02;;;;;;;3.58;2.17;;;5.60;75.20;;;4.78;58.42;95499.63;4697441;30;20231;-88
2022/01/28 09:18:30;;;;;;;2.97;1.77;;;5.60;74.80;;;4.74;58.35;95485.28;4667431;30;20209;-89
2022/01/28 09:20:59;;;;;;;2.80;1.63;;;5.60;75.00;;;4.78;58.12;95491.81;4682389;30;20217;-89
2022/01/28 09:23:29;;;;;;;3.83;1.90;;;5.60;74.80;;;4.88;56.41;95510.81;4697057;30;20201;-89
2022/01/28 09:25:57;;;;;;;3.45;1.80;;;5.70;73.50;;;4.84;55.94;95517.25;4684218;30;20367;-90
2022/01/28 09:28:25;;;;;;;1.85;1.63;;;5.70;73.40;;;4.83;57.05;95502.59;4684366;30;20248;-88
2022/01/28 09:30:53;;;;;;;4.22;1.85;;;5.60;73.90;;;4.94;56.53;95520.66;4681409;30;20244;-89
2022/01/28 09:33:21;;;;;;;1.90;1.60;;;5.60;73.40;;;4.94;56.70;95519.81;4712353;30;20255;-89
2022/01/28 09:35:49;;;;;;;4.00;2.00;;;5.70;73.60;;;4.95;56.11;95521.47;4654706;30;20288;-88
2022/01/28 09:38:17;;;;;;;2.67;1.90;;;5.70;73.10;;;5.04;56.28;95525.81;4686497;30;20221;-89
2022/01/28 09:40:45;;;;;;;2.35;1.80;;;5.70;73.20;;;5.02;56.68;95519.13;4685653;30;20707;-88
2022/01/28 09:43:13;;;;;;;4.22;1.90;;;5.80;73.60;;;5.00;55.12;95537.44;4682330;30;20220;-89
2022/01/28 09:45:41;;;;;;;2.97;1.55;;;5.80;72.90;;;4.99;55.58;95517.59;4698034;30;20755;-89
2022/01/28 09:48:11;;;;;;;2.60;1.77;;;6.00;73.10;;;5.02;55.55;95521.72;4698887;30;20295;-90
2022/01/28 09:50:39;;;;;;;4.60;1.90;;;5.80;72.90;;;5.10;55.66;95535.66;4694954;30;20241;-89
2022/01/28 09:53:07;;;;;;;2.75;1.67;;;5.90;73.00;;;5.23;56.20;95531.91;4681869;30;20216;-90
2022/01/28 09:55:45;;;;;;;2.08;1.80;;;6.00;73.10;;;5.28;55.81;95516.69;4668831;30;20266;-89
2022/01/28 09:58:14;;;;;;;2.05;1.58;;;6.00;73.10;;;5.31;55.30;95524.22;4668119;30;20267;-89
2022/01/28 10:00:42;;;;;;;3.90;1.65;;;6.10;73.10;;;5.28;55.42;95512.31;4683398;30;20236;-90
2022/01/28 10:03:12;;;;;;;5.82;1.88;;;6.10;72.90;;;5.28;56.56;95521.88;4672398;30;20217;-90
2022/01/28 10:05:44;;;;;;;2.10;1.75;;;6.10;73.10;;;5.26;57.22;95531.59;4686679;30;20298;-88
2022/01/28 10:08:24;;;;;;;3.60;1.58;;;6.10;73.20;;;5.26;57.78;95542.00;4683450;30;20243;-89
2022/01/28 10:11:07;;;;;;;4.55;2.08;;;6.10;73.10;;;5.23;58.08;95543.13;4684859;30;20732;-89
2022/01/28 10:16:23;;;;;;;3.17;1.70;;;6.00;73.10;;;5.17;57.51;95538.47;4687411;30;20228;-90
2022/01/28 10:18:59;;;;;;;3.38;1.85;;;6.00;73.20;;;5.19;58.07;95538.34;4671256;30;20236;-90
2022/01/28 10:21:36;;;;;;;4.70;1.60;;;6.00;74.30;;;5.17;58.44;95555.88;4685634;30;20209;-90
2022/01/28 10:24:17;;;;;;;3.78;1.75;;;6.00;74.00;;;5.19;58.10;95588.59;4685861;30;20259;-90
2022/01/28 10:27:07;;;;;;;2.97;1.80;;;6.00;73.10;;;5.23;57.90;95548.31;4685830;30;20232;-90
2022/01/28 10:29:37;;;;;;;2.55;1.30;;;6.00;73.10;;;5.35;58.30;95564.56;4700178;30;20233;-90
2022/01/28 10:32:14;;;;;;;3.80;2.08;;;6.00;74.00;;;5.28;56.56;95547.91;4671253;30;20311;-90
2022/01/28 10:34:50;;;;;;;2.90;1.70;;;6.00;73.10;;;5.40;57.22;95559.75;4684975;30;20248;-90
2022/01/28 10:37:25;;;;;;;3.25;1.55;;;6.10;73.10;;;5.39;55.94;95554.69;4684545;30;20227;-91
2022/01/28 10:40:00;;;;;;;3.47;1.63;;;6.10;72.60;;;5.54;55.02;95550.66;4671196;30;20247;-91
2022/01/28 10:42:43;;;;;;;2.85;1.80;;;6.10;72.50;;;5.65;54.92;95573.06;4700158;30;20205;-91
2022/01/28 10:45:18;;;;;;;3.70;1.63;;;6.20;72.40;;;5.65;54.31;95546.22;4671550;30;20236;-90
2022/01/28 10:47:55;;;;;;;2.97;1.63;;;6.30;72.00;;;5.75;53.38;95547.81;4685852;30;20303;-90
2022/01/28 10:50:36;;;;;;;5.40;1.80;;;6.30;71.50;;;5.80;53.86;95551.75;4685679;30;20236;-90
2022/01/28 10:53:20;;;;;;;4.75;1.80;;;6.40;71.70;;;5.84;52.72;95558.31;4685508;30;20294;-90
2022/01/28 10:55:54;;;;;;;3.95;1.67;;;6.40;71.00;;;5.75;52.88;95568.63;4684982;30;20229;-89
2022/01/28 10:58:24;;;;;;;3.58;1.95;;;6.50;70.50;;;5.80;53.49;95593.38;4685782;30;20216;-90
2022/01/28 11:00:58;;;;;;;2.95;1.52;;;6.50;71.30;;;5.72;52.39;95581.09;4684640;30;20272;-89
2022/01/28 11:03:28;;;;;;;2.65;1.63;;;6.50;70.50;;;5.59;53.45;95574.47;4699466;30;20236;-88
2022/01/28 11:06:02;;;;;;;2.50;1.60;;;6.40;70.90;;;5.55;54.10;95590.50;4684708;30;20248;-89
2022/01/28 11:08:31;;;;;;;2.65;1.60;;;6.50;71.30;;;5.42;55.14;95589.03;4700031;30;20241;-90
2022/01/28 11:11:01;;;;;;;3.63;1.80;;;6.30;71.50;;;5.37;55.49;95606.03;4684197;30;20305;-88
2022/01/28 11:13:29;;;;;;;3.97;1.95;;;6.30;71.80;;;5.28;55.25;95594.72;4685376;30;20224;-90
2022/01/28 11:15:57;;;;;;;3.70;1.90;;;6.30;71.70;;;5.18;55.75;95591.34;4685361;30;20217;-90
2022/01/28 11:18:26;;;;;;;3.03;1.73;;;6.20;72.00;;;5.14;56.38;95585.59;4685252;30;20228;-89
2022/01/28 11:21:04;;;;;;;3.10;1.70;;;6.10;72.20;;;5.05;56.26;95582.03;4699210;30;20701;-89
2022/01/28 11:23:52;;;;;;;5.30;1.90;;;6.10;72.40;;;4.98;57.38;95604.38;4685059;30;20212;-87
2022/01/28 11:26:36;;;;;;;4.45;1.75;;;6.00;72.70;;;4.99;57.75;95607.78;4684891;30;20661;-88
2022/01/28 11:29:27;;;;;;;4.18;1.92;;;5.90;73.00;;;4.85;58.53;95596.06;4683793;30;20277;-86
2022/01/28 11:32:13;;;;;;;4.88;1.83;;;5.90;73.00;;;4.90;58.83;95631.06;4683959;30;20220;-89
2022/01/28 11:35:06;;;;;;;6.10;2.10;;;5.90;73.10;;;4.88;58.92;95608.75;4671572;30;20249;-88
2022/01/28 11:37:34;;;;;;;4.22;2.15;;;5.80;73.50;;;4.75;59.55;95596.06;4685034;30;20814;-89
2022/01/28 11:40:11;;;;;;;3.88;2.13;;;5.80;73.90;;;4.78;59.75;95606.97;4698942;30;20287;-88
2022/01/28 11:42:39;;;;;;;4.63;2.13;;;5.70;73.80;;;4.76;60.09;95614.13;4698985;30;20205;-88
2022/01/28 11:45:11;;;;;;;4.70;2.17;;;5.70;74.30;;;4.74;59.89;95610.81;4698819;30;20232;-89
2022/01/28 11:47:52;;;;;;;4.32;1.70;;;5.70;74.20;;;4.86;59.65;95614.09;4670366;30;20251;-89
2022/01/28 11:50:23;;;;;;;4.03;1.70;;;5.60;74.30;;;4.84;59.47;95617.81;4698475;30;20237;-88
2022/01/28 11:52:58;;;;;;;4.18;1.63;;;5.70;74.40;;;4.89;60.10;95607.81;4684764;30;20268;-88
2022/01/28 11:55:25;;;;;;;4.57;1.85;;;5.70;74.80;;;5.00;60.66;95618.03;4669894;30;20236;-88
2022/01/28 11:57:57;;;;;;;4.25;2.00;;;5.80;75.00;;;4.99;60.16;95615.59;4684672;30;20217;-89
2022/01/28 12:00:32;;;;;;;4.63;2.10;;;5.70;75.10;;;5.02;60.32;95610.94;4684072;30;20712;-87
2022/01/28 12:03:02;;;;;;;6.35;2.00;;;5.80;75.00;;;5.01;60.68;95611.06;4699050;30;20212;-89
2022/01/28 12:05:30;;;;;;;6.93;2.08;;;5.80;75.10;;;5.12;61.10;95619.50;4684838;30;20237;-89
2022/01/28 12:08:03;;;;;;;4.85;2.10;;;5.90;75.50;;;5.13;60.96;95620.34;4684310;30;20236;-90
2022/01/28 12:10:33;;;;;;;5.18;2.20;;;5.90;75.40;;;5.17;60.45;95615.69;4670323;30;20298;-88
2022/01/28 12:13:04;;;;;;;3.95;2.13;;;5.90;75.30;;;5.22;60.25;95619.50;4684303;30;20212;-88
2022/01/28 12:16:11;;;;;;;5.65;2.10;;;5.90;75.00;;;5.26;59.94;95612.22;4685136;30;20630;-87
2022/01/28 12:18:45;;;;;;;4.32;1.80;;;6.00;75.00;;;5.35;59.43;95619.19;4698302;30;20594;-88
2022/01/28 12:21:19;;;;;;;6.47;2.20;;;6.00;74.30;;;5.37;59.08;95624.25;4684077;30;20572;-90
2022/01/28 12:23:51;;;;;;;5.63;1.98;;;6.10;74.60;;;5.37;58.54;95606.88;4684132;30;20240;-90
2022/01/28 12:26:19;;;;;;;3.20;1.90;;;6.10;74.30;;;5.43;57.79;95619.31;4698478;30;20221;-92
2022/01/28 12:28:55;;;;;;;3.63;2.05;;;6.10;73.60;;;5.39;58.09;95630.13;4684007;30;20660;-91
2022/01/28 12:31:29;;;;;;;4.28;1.70;;;6.20;73.90;;;5.44;58.00;95615.75;4683823;30;20304;-88
2022/01/28 12:34:01;;;;;;;5.82;2.47;;;6.10;73.80;;;5.43;57.67;95608.06;4684640;30;20240;-89
2022/01/28 12:36:34;;;;;;;5.30;2.10;;;6.20;73.70;;;5.48;58.74;95616.28;4683995;30;20217;-88
2022/01/28 12:41:51;;;;;;;4.30;1.98;;;6.20;73.60;;;5.29;58.32;95610.16;4685564;30;20212;-89
2022/01/28 12:44:20;;;;;;;4.55;2.97;;;6.20;73.60;;;5.36;58.57;95617.41;4684397;30;20327;-88
2022/01/28 12:47:10;;;;;;;4.82;2.30;;;6.20;73.70;;;5.34;58.39;95614.13;4684310;30;20217;-88